Time;durP1;ratioP1;P1;durP2;ratioP2;P2;SDS_P1;SDS_P2;PMS_P1;PMS_P2;Temp;Humidity;BMP_temperature;BMP_pressure;BME280_temperature;BME280_humidity;BME280_pressure;Samples;Min_cycle;Max_cycle;Signal;HPM_P1;HPM_P2
2021/01/09 00:00:57;;;;;;;;;;;0.60;99.90;;;;;;5066256;28;19913;-72
2021/01/09 00:03:22;;;;;;;;;;;0.50;99.90;;;;;;5050888;28;19924;-73
2021/01/09 00:05:52;;;;;;;;;;;0.50;99.90;;;;;;5057778;28;19943;-73
2021/01/09 00:08:18;;;;;;;;;;;0.50;99.90;;;;;;5057444;28;19999;-72
2021/01/09 00:10:43;;;;;;;;;;;0.60;99.90;;;;;;5064400;28;19917;-72
2021/01/09 00:13:09;;;;;;;;;;;0.60;99.90;;;;;;5045871;28;19947;-72
2021/01/09 00:15:35;;;;;;;;;;;0.60;99.90;;;;;;5061659;28;20007;-72
2021/01/09 00:18:00;;;;;;;;;;;0.50;99.90;;;;;;5056896;28;20345;-72
2021/01/09 00:20:26;;;;;;;;;;;0.50;99.90;;;;;;5051084;28;19916;-73
2021/01/09 00:22:51;;;;;;;;;;;0.50;99.90;;;;;;5064718;28;19979;-72
2021/01/09 00:25:17;;;;;;;;;;;0.40;99.90;;;;;;5048946;28;19913;-72
2021/01/09 00:27:43;;;;;;;;;;;0.40;99.90;;;;;;5053870;28;20079;-72
2021/01/09 00:30:09;;;;;;;;;;;0.40;99.90;;;;;;5047779;28;19948;-71
2021/01/09 00:32:34;;;;;;;;;;;0.40;99.90;;;;;;5063132;28;20277;-72
2021/01/09 00:35:00;;;;;;;;;;;0.30;99.90;;;;;;5046218;28;19913;-72
2021/01/09 00:37:26;;;;;;;;;;;0.30;99.90;;;;;;5054342;28;19917;-71
2021/01/09 00:39:51;;;;;;;;;;;0.30;99.90;;;;;;5060066;28;19958;-72
2021/01/09 00:42:17;;;;;;;;;;;0.40;99.90;;;;;;5057842;28;19931;-71
2021/01/09 00:44:43;;;;;;;;;;;0.40;99.90;;;;;;5048368;28;20410;-72
2021/01/09 00:47:08;;;;;;;;;;;0.40;99.90;;;;;;5063314;28;20387;-71
2021/01/09 00:49:34;;;;;;;;;;;0.30;99.90;;;;;;5051186;28;20016;-71
2021/01/09 00:51:59;;;;;;;;;;;0.30;99.90;;;;;;5062086;28;19990;-72
2021/01/09 00:54:25;;;;;;;;;;;0.20;99.90;;;;;;5066127;28;19963;-72
2021/01/09 00:56:53;;;;;;;;;;;0.20;99.90;;;;;;5062535;28;19924;-72
2021/01/09 00:59:19;;;;;;;;;;;0.10;99.90;;;;;;5069987;28;20337;-72
2021/01/09 01:01:45;;;;;;;;;;;0.10;99.90;;;;;;5051672;28;20015;-71
2021/01/09 01:04:11;;;;;;;;;;;0.20;99.90;;;;;;5061940;28;19917;-72
2021/01/09 01:06:36;;;;;;;;;;;0.20;99.90;;;;;;5064599;28;19956;-71
2021/01/09 01:09:02;;;;;;;;;;;0.20;99.90;;;;;;5060310;28;19976;-71
2021/01/09 01:11:28;;;;;;;;;;;0.20;99.90;;;;;;5069399;28;20373;-72
2021/01/09 01:13:55;;;;;;;;;;;0.20;99.90;;;;;;5052342;28;20011;-72
2021/01/09 01:16:21;;;;;;;;;;;0.30;99.90;;;;;;5058259;28;19917;-72
2021/01/09 01:18:46;;;;;;;;;;;0.30;99.90;;;;;;5056250;28;19917;-71
2021/01/09 01:21:12;;;;;;;;;;;0.30;99.90;;;;;;5050510;28;19916;-72
2021/01/09 01:23:37;;;;;;;;;;;0.40;99.90;;;;;;5046807;28;20020;-71
2021/01/09 01:26:03;;;;;;;;;;;0.40;99.90;;;;;;5058248;28;20007;-72
2021/01/09 01:28:28;;;;;;;;;;;0.40;99.90;;;;;;5060000;28;20738;-72
2021/01/09 01:30:54;;;;;;;;;;;0.30;99.90;;;;;;5063603;28;19920;-73
2021/01/09 01:33:20;;;;;;;;;;;0.30;99.90;;;;;;5049959;28;19931;-71
2021/01/09 01:35:46;;;;;;;;;;;0.30;99.90;;;;;;5069201;28;19943;-70
2021/01/09 01:38:12;;;;;;;;;;;0.30;99.90;;;;;;5059873;28;20575;-71
2021/01/09 01:40:37;;;;;;;;;;;0.40;99.90;;;;;;5060868;28;19955;-71
2021/01/09 01:43:08;;;;;;;;;;;0.40;99.90;;;;;;5061447;28;19956;-71
2021/01/09 01:45:33;;;;;;;;;;;0.50;99.90;;;;;;5050925;28;19924;-71
2021/01/09 01:47:59;;;;;;;;;;;0.50;99.90;;;;;;5058185;28;19916;-71
2021/01/09 01:50:24;;;;;;;;;;;0.50;99.90;;;;;;5052282;28;20358;-71
2021/01/09 01:52:50;;;;;;;;;;;0.50;99.90;;;;;;5056748;28;19920;-71
2021/01/09 01:55:15;;;;;;;;;;;0.50;99.90;;;;;;5052341;28;20329;-70
2021/01/09 01:57:42;;;;;;;;;;;0.60;99.90;;;;;;5069142;28;19923;-70
2021/01/09 02:00:07;;;;;;;;;;;0.60;99.90;;;;;;5059842;28;19955;-71
2021/01/09 02:02:33;;;;;;;;;;;0.60;99.90;;;;;;5054745;28;20342;-70
2021/01/09 02:05:01;;;;;;;;;;;0.50;99.90;;;;;;5055956;28;19944;-71
2021/01/09 02:07:28;;;;;;;;;;;0.50;99.90;;;;;;5056791;28;20293;-71
2021/01/09 02:09:56;;;;;;;;;;;0.50;99.90;;;;;;5063556;28;20260;-72
2021/01/09 02:12:29;;;;;;;;;;;0.40;99.90;;;;;;5050756;28;19928;-70
2021/01/09 02:14:59;;;;;;;;;;;0.50;99.90;;;;;;5052310;28;19999;-71
2021/01/09 02:17:25;;;;;;;;;;;0.50;99.90;;;;;;5058806;28;19998;-71
2021/01/09 02:19:50;;;;;;;;;;;0.50;99.90;;;;;;5061956;28;19920;-71
2021/01/09 02:22:16;;;;;;;;;;;0.50;99.90;;;;;;5063267;28;19920;-71
2021/01/09 02:24:42;;;;;;;;;;;0.50;99.90;;;;;;5047585;28;19917;-71
2021/01/09 02:27:09;;;;;;;;;;;0.50;99.90;;;;;;5063466;28;19916;-71
2021/01/09 02:29:36;;;;;;;;;;;0.50;99.90;;;;;;5057555;28;19967;-71
2021/01/09 02:32:03;;;;;;;;;;;0.50;99.90;;;;;;5057833;28;19917;-71
2021/01/09 02:34:36;;;;;;;;;;;0.50;99.90;;;;;;5048226;28;19917;-71
2021/01/09 02:37:02;;;;;;;;;;;0.50;99.90;;;;;;5061631;28;19970;-71
2021/01/09 02:39:28;;;;;;;;;;;0.50;99.90;;;;;;5063805;28;19916;-71
2021/01/09 02:41:54;;;;;;;;;;;0.50;99.90;;;;;;5058461;28;19916;-71
2021/01/09 02:44:20;;;;;;;;;;;0.50;99.90;;;;;;5058943;28;20297;-71
2021/01/09 02:46:45;;;;;;;;;;;0.60;99.90;;;;;;5047673;28;19909;-71
2021/01/09 02:49:11;;;;;;;;;;;0.60;99.90;;;;;;5047278;28;20543;-71
2021/01/09 02:51:36;;;;;;;;;;;0.60;99.90;;;;;;5047086;28;20396;-71
2021/01/09 02:54:02;;;;;;;;;;;0.50;99.90;;;;;;5046468;28;20479;-71
2021/01/09 02:56:27;;;;;;;;;;;0.50;99.90;;;;;;5046299;28;20003;-72
2021/01/09 02:58:53;;;;;;;;;;;0.50;99.90;;;;;;5047324;28;19934;-72
2021/01/09 03:01:18;;;;;;;;;;;0.40;99.90;;;;;;5047723;28;20074;-72
2021/01/09 03:03:44;;;;;;;;;;;0.40;99.90;;;;;;5046063;28;19915;-71
2021/01/09 03:06:09;;;;;;;;;;;0.50;99.90;;;;;;5047304;28;20403;-71
2021/01/09 03:08:35;;;;;;;;;;;0.50;99.90;;;;;;5066941;28;19912;-72
2021/01/09 03:11:00;;;;;;;;;;;0.60;99.90;;;;;;5067115;28;19916;-71
2021/01/09 03:13:26;;;;;;;;;;;0.60;99.90;;;;;;5066711;28;19913;-71
2021/01/09 03:15:51;;;;;;;;;;;0.60;99.90;;;;;;5067966;28;20485;-71
2021/01/09 03:18:17;;;;;;;;;;;0.70;99.90;;;;;;5067669;28;20320;-71
2021/01/09 03:20:42;;;;;;;;;;;0.70;99.90;;;;;;5067572;28;19992;-71
2021/01/09 03:23:08;;;;;;;;;;;0.70;99.90;;;;;;5066081;28;19909;-70
2021/01/09 03:25:33;;;;;;;;;;;0.60;99.90;;;;;;5067512;28;19920;-71
2021/01/09 03:27:59;;;;;;;;;;;0.70;99.90;;;;;;5067603;28;19920;-72
2021/01/09 03:30:25;;;;;;;;;;;0.80;99.90;;;;;;5067495;28;19920;-71
2021/01/09 03:32:50;;;;;;;;;;;0.80;99.90;;;;;;5066670;28;19909;-71
2021/01/09 03:35:16;;;;;;;;;;;0.80;99.90;;;;;;5067388;28;20389;-71
2021/01/09 03:37:41;;;;;;;;;;;0.70;99.90;;;;;;5053422;28;19912;-71
2021/01/09 03:40:07;;;;;;;;;;;0.70;99.90;;;;;;5047672;28;19916;-71
2021/01/09 03:42:33;;;;;;;;;;;0.70;99.90;;;;;;5047185;28;19923;-71
2021/01/09 03:44:58;;;;;;;;;;;0.70;99.90;;;;;;5046518;28;19920;-71
2021/01/09 03:47:24;;;;;;;;;;;0.70;99.90;;;;;;5047220;28;19937;-71
2021/01/09 03:49:49;;;;;;;;;;;0.70;99.90;;;;;;5047239;28;19917;-72
2021/01/09 03:52:15;;;;;;;;;;;0.60;99.90;;;;;;5046244;28;19958;-71
2021/01/09 03:54:40;;;;;;;;;;;0.60;99.90;;;;;;5069561;22;19933;-69
2021/01/09 03:57:06;;;;;;;;;;;0.60;99.90;;;;;;5047581;28;19939;-68
2021/01/09 03:59:32;;;;;;;;;;;0.60;99.90;;;;;;5047912;28;20687;-67
2021/01/09 04:01:58;;;;;;;;;;;0.60;99.90;;;;;;5046918;28;19943;-68
2021/01/09 04:04:23;;;;;;;;;;;0.60;99.90;;;;;;5046619;28;19908;-69
2021/01/09 04:06:49;;;;;;;;;;;0.70;99.90;;;;;;5046670;28;19913;-66
2021/01/09 04:09:14;;;;;;;;;;;0.80;99.90;;;;;;5047148;28;20011;-68
2021/01/09 04:11:40;;;;;;;;;;;0.80;99.90;;;;;;5047289;28;19917;-68
2021/01/09 04:14:06;;;;;;;;;;;0.90;99.90;;;;;;5046391;28;19913;-67
2021/01/09 04:16:35;;;;;;;;;;;0.90;99.90;;;;;;5047167;28;19909;-68
2021/01/09 04:19:01;;;;;;;;;;;0.90;99.90;;;;;;5047275;28;19913;-67
2021/01/09 04:21:26;;;;;;;;;;;0.90;99.90;;;;;;5014578;28;19986;-67
2021/01/09 04:23:52;;;;;;;;;;;0.80;99.90;;;;;;5007796;28;19920;-66
2021/01/09 04:26:17;;;;;;;;;;;0.80;99.90;;;;;;5011561;28;19920;-69
2021/01/09 04:28:43;;;;;;;;;;;0.80;99.90;;;;;;5010836;28;20382;-68
2021/01/09 04:31:08;;;;;;;;;;;0.70;99.90;;;;;;5011558;28;19913;-68
2021/01/09 04:33:34;;;;;;;;;;;0.80;99.90;;;;;;5010459;28;20239;-68
2021/01/09 04:35:59;;;;;;;;;;;0.80;99.90;;;;;;5011307;28;19920;-69
2021/01/09 04:38:25;;;;;;;;;;;0.70;99.90;;;;;;5048087;28;20362;-68
2021/01/09 04:40:50;;;;;;;;;;;0.70;99.90;;;;;;5050842;28;19949;-68
2021/01/09 04:43:19;;;;;;;;;;;0.70;99.90;;;;;;5049733;28;20008;-67
2021/01/09 04:45:45;;;;;;;;;;;0.60;99.90;;;;;;5050361;28;19909;-68
2021/01/09 04:48:12;;;;;;;;;;;0.60;99.90;;;;;;5032729;28;19909;-68
2021/01/09 04:50:39;;;;;;;;;;;0.50;99.90;;;;;;5030567;28;19913;-69
2021/01/09 04:53:06;;;;;;;;;;;0.40;99.90;;;;;;5028324;28;20000;-68
2021/01/09 04:55:33;;;;;;;;;;;0.40;99.90;;;;;;5030812;28;20063;-68
2021/01/09 04:58:00;;;;;;;;;;;0.40;99.90;;;;;;5030745;28;19909;-69
2021/01/09 05:00:25;;;;;;;;;;;0.40;99.90;;;;;;5030432;28;19916;-69
2021/01/09 05:02:52;;;;;;;;;;;0.40;99.90;;;;;;5029909;28;19909;-70
2021/01/09 05:05:17;;;;;;;;;;;0.40;99.90;;;;;;5029821;28;19932;-69
2021/01/09 05:07:43;;;;;;;;;;;0.50;99.90;;;;;;5043032;28;19928;-68
2021/01/09 05:10:11;;;;;;;;;;;0.40;99.90;;;;;;5050610;28;19912;-68
2021/01/09 05:12:39;;;;;;;;;;;0.30;99.90;;;;;;5050020;28;19917;-69
2021/01/09 05:15:05;;;;;;;;;;;0.30;99.90;;;;;;5049439;28;19974;-68
2021/01/09 05:17:31;;;;;;;;;;;0.30;99.90;;;;;;5050263;28;19912;-68
2021/01/09 05:19:57;;;;;;;;;;;0.30;99.90;;;;;;5050114;28;19920;-68
2021/01/09 05:22:23;;;;;;;;;;;0.20;99.90;;;;;;5048802;28;19958;-68
2021/01/09 05:24:49;;;;;;;;;;;0.20;99.90;;;;;;5049010;28;19909;-68
2021/01/09 05:27:15;;;;;;;;;;;0.10;99.90;;;;;;5050369;28;19909;-68
2021/01/09 05:29:41;;;;;;;;;;;0.00;99.90;;;;;;5046371;28;19924;-68
2021/01/09 05:32:08;;;;;;;;;;;-0.10;99.90;;;;;;5039853;28;19914;-68
2021/01/09 05:34:46;;;;;;;;;;;-0.10;99.90;;;;;;5029073;28;20012;-68
2021/01/09 05:37:23;;;;;;;;;;;-0.10;99.90;;;;;;5043661;28;20008;-68
2021/01/09 05:39:57;;;;;;;;;;;-0.10;99.90;;;;;;5049181;28;19923;-68
2021/01/09 05:42:27;;;;;;;;;;;-0.10;99.90;;;;;;5048787;28;20003;-68
2021/01/09 05:44:53;;;;;;;;;;;-0.10;99.90;;;;;;5047407;28;19917;-68
2021/01/09 05:47:20;;;;;;;;;;;-0.10;99.90;;;;;;5044387;28;19974;-68
2021/01/09 05:49:45;;;;;;;;;;;-0.10;99.90;;;;;;5048859;28;19952;-68
2021/01/09 05:52:11;;;;;;;;;;;-0.10;99.90;;;;;;5048395;28;19990;-69
2021/01/09 05:54:37;;;;;;;;;;;-0.10;99.90;;;;;;5048183;28;19921;-68
2021/01/09 05:57:04;;;;;;;;;;;-0.10;99.90;;;;;;5048753;28;20340;-68
2021/01/09 05:59:31;;;;;;;;;;;-0.10;99.90;;;;;;5048775;28;19912;-68
2021/01/09 06:01:58;;;;;;;;;;;-0.10;99.90;;;;;;5037846;28;19939;-67
2021/01/09 06:04:26;;;;;;;;;;;-0.10;99.90;;;;;;5028581;28;20367;-68
2021/01/09 06:06:57;;;;;;;;;;;-0.10;99.90;;;;;;5034709;28;20517;-68
2021/01/09 06:09:32;;;;;;;;;;;-0.10;99.90;;;;;;5048910;28;19991;-68
2021/01/09 06:12:00;;;;;;;;;;;-0.20;99.90;;;;;;5046043;28;19913;-69
2021/01/09 06:14:27;;;;;;;;;;;-0.20;99.90;;;;;;5046843;28;19916;-68
2021/01/09 06:16:54;;;;;;;;;;;-0.20;99.90;;;;;;5048851;28;19920;-68
2021/01/09 06:19:21;;;;;;;;;;;-0.30;99.90;;;;;;5049072;28;19932;-67
2021/01/09 06:21:46;;;;;;;;;;;-0.30;99.90;;;;;;5048002;28;19971;-68
2021/01/09 06:24:12;;;;;;;;;;;-0.30;99.90;;;;;;5047865;28;19956;-68
2021/01/09 06:26:38;;;;;;;;;;;-0.30;99.90;;;;;;5049322;28;19968;-68
2021/01/09 06:29:18;;;;;;;;;;;-0.30;99.90;;;;;;5048083;28;19920;-68
2021/01/09 06:31:50;;;;;;;;;;;-0.40;99.90;;;;;;5036376;28;20386;-68
2021/01/09 06:34:17;;;;;;;;;;;-0.40;99.90;;;;;;5027923;28;19959;-68
2021/01/09 06:36:43;;;;;;;;;;;-0.50;99.90;;;;;;5033162;28;20297;-69
2021/01/09 06:39:09;;;;;;;;;;;-0.60;99.90;;;;;;5048461;28;19913;-68
2021/01/09 06:41:36;;;;;;;;;;;-0.60;99.90;;;;;;5048366;28;19958;-69
2021/01/09 06:44:05;;;;;;;;;;;-0.60;99.90;;;;;;5046794;28;20003;-68
2021/01/09 06:46:34;;;;;;;;;;;-0.60;99.90;;;;;;5043878;28;19921;-68
2021/01/09 06:49:00;;;;;;;;;;;-0.70;99.90;;;;;;5027879;28;19992;-68
2021/01/09 06:51:34;;;;;;;;;;;-0.90;99.90;;;;;;5028222;28;19960;-67
2021/01/09 06:54:15;;;;;;;;;;;-0.90;99.90;;;;;;5026566;28;19932;-68
2021/01/09 06:57:00;;;;;;;;;;;-1.00;99.90;;;;;;5028453;28;19920;-68
2021/01/09 06:59:30;;;;;;;;;;;-1.10;99.90;;;;;;5027408;28;19920;-67
2021/01/09 07:02:16;;;;;;;;;;;-1.10;99.90;;;;;;5028206;28;19913;-69
2021/01/09 07:05:00;;;;;;;;;;;-1.10;99.90;;;;;;5026913;28;20310;-68
2021/01/09 07:07:26;;;;;;;;;;;-1.10;99.90;;;;;;5038584;28;19913;-67
2021/01/09 07:09:52;;;;;;;;;;;-1.30;99.90;;;;;;5048118;28;19962;-68
2021/01/09 07:12:18;;;;;;;;;;;-1.30;99.90;;;;;;5047783;28;19966;-67
2021/01/09 07:14:43;;;;;;;;;;;-1.30;99.90;;;;;;5046711;28;19920;-68
2021/01/09 07:17:11;;;;;;;;;;;-1.40;99.90;;;;;;5049075;28;19909;-68
2021/01/09 07:19:37;;;;;;;;;;;-1.40;99.90;;;;;;5047942;28;19912;-68
2021/01/09 07:22:03;;;;;;;;;;;-1.40;99.90;;;;;;5046929;28;20350;-67
2021/01/09 07:24:29;;;;;;;;;;;-1.40;99.90;;;;;;5047246;28;19913;-68
2021/01/09 07:26:54;;;;;;;;;;;-1.40;99.90;;;;;;5048173;28;19973;-66
2021/01/09 07:29:23;;;;;;;;;;;-1.30;99.90;;;;;;5047862;28;19924;-68
2021/01/09 07:31:49;;;;;;;;;;;-1.40;99.90;;;;;;5047691;28;19912;-69
2021/01/09 07:34:14;;;;;;;;;;;-1.30;99.90;;;;;;5047174;28;19917;-68
2021/01/09 07:36:41;;;;;;;;;;;-1.30;99.90;;;;;;5042317;28;19913;-68
2021/01/09 07:39:07;;;;;;;;;;;-1.30;99.90;;;;;;5027794;28;19909;-68
2021/01/09 07:41:33;;;;;;;;;;;-1.20;99.90;;;;;;5028283;28;19913;-68
2021/01/09 07:44:12;;;;;;;;;;;-1.10;99.90;;;;;;5026325;28;20291;-67
2021/01/09 07:46:48;;;;;;;;;;;-0.90;99.90;;;;;;5028461;28;19916;-67
2021/01/09 07:49:23;;;;;;;;;;;-0.50;99.90;;;;;;5027557;28;19924;-68
2021/01/09 07:51:52;;;;;;;;;;;-0.20;99.90;;;;;;5026834;28;20611;-69
2021/01/09 07:54:27;;;;;;;;;;;0.20;99.90;;;;;;5026641;28;20412;-68
2021/01/09 07:56:52;;;;;;;;;;;0.60;99.90;;;;;;5028068;28;19913;-68
2021/01/09 07:59:18;;;;;;;;;;;1.10;99.90;;;;;;5031482;28;19920;-69
2021/01/09 08:01:44;;;;;;;;;;;1.40;99.90;;;;;;5031838;28;19913;-68
2021/01/09 08:04:10;;;;;;;;;;;2.00;99.90;;;;;;5030084;28;19913;-68
2021/01/09 08:06:39;;;;;;;;;;;2.90;99.90;;;;;;5035134;28;19939;-68
2021/01/09 08:09:05;;;;;;;;;;;3.00;99.90;;;;;;5047099;28;20018;-68
2021/01/09 08:11:31;;;;;;;;;;;3.20;99.90;;;;;;5030100;28;19914;-66
2021/01/09 08:14:02;;;;;;;;;;;3.20;99.90;;;;;;5028934;28;20278;-68
2021/01/09 08:16:28;;;;;;;;;;;3.30;99.90;;;;;;5028207;28;19921;-68
2021/01/09 08:18:53;;;;;;;;;;;3.60;99.90;;;;;;5028351;28;20141;-68
2021/01/09 08:21:23;;;;;;;;;;;3.80;99.90;;;;;;5030152;28;19913;-68
2021/01/09 08:23:54;;;;;;;;;;;4.10;99.90;;;;;;5027289;28;19913;-68
2021/01/09 08:26:23;;;;;;;;;;;4.30;99.90;;;;;;5030994;28;20062;-68
2021/01/09 08:28:50;;;;;;;;;;;4.60;99.90;;;;;;5030896;28;19916;-69
2021/01/09 08:31:16;;;;;;;;;;;6.70;99.90;;;;;;5031313;28;19913;-69
2021/01/09 08:33:42;;;;;;;;;;;;;;;;;;5029699;28;20374;-68
2021/01/09 08:36:14;;;;;;;;;;;12.30;99.90;;;;;;5031129;28;19963;-68
2021/01/09 08:38:40;;;;;;;;;;;12.30;99.90;;;;;;5048953;28;19912;-69
2021/01/09 08:41:05;;;;;;;;;;;13.70;99.90;;;;;;5048967;28;19913;-69
2021/01/09 08:43:31;;;;;;;;;;;12.70;99.90;;;;;;5048342;28;19924;-69
2021/01/09 08:45:56;;;;;;;;;;;11.30;99.90;;;;;;5049210;28;19916;-68
2021/01/09 08:48:42;;;;;;;;;;;12.40;99.90;;;;;;5027977;28;19909;-69
2021/01/09 08:51:10;;;;;;;;;;;12.90;99.00;;;;;;5028567;28;19920;-69
2021/01/09 08:53:41;;;;;;;;;;;14.50;99.70;;;;;;5029196;28;19967;-68
2021/01/09 08:56:07;;;;;;;;;;;12.40;99.90;;;;;;5030895;28;19921;-69
2021/01/09 08:58:34;;;;;;;;;;;9.90;99.90;;;;;;5030525;28;20336;-69
2021/01/09 09:01:01;;;;;;;;;;;7.90;99.90;;;;;;5030920;28;19959;-69
2021/01/09 09:03:27;;;;;;;;;;;6.60;99.90;;;;;;5030108;28;20293;-68
2021/01/09 09:05:53;;;;;;;;;;;5.70;99.90;;;;;;5030211;28;19910;-68
2021/01/09 09:08:19;;;;;;;;;;;4.90;99.90;;;;;;5047831;28;19912;-68
2021/01/09 09:10:45;;;;;;;;;;;4.60;99.90;;;;;;5049708;28;19913;-69
2021/01/09 09:13:21;;;;;;;;;;;4.30;99.90;;;;;;5049604;28;20404;-68
2021/01/09 09:15:47;;;;;;;;;;;4.20;99.90;;;;;;5049706;28;19913;-69
2021/01/09 09:18:13;;;;;;;;;;;4.10;99.90;;;;;;5050627;28;19919;-66
2021/01/09 09:20:39;;;;;;;;;;;3.50;99.90;;;;;;5050454;28;19936;-67
2021/01/09 09:23:40;;;;;;;;;;;3.00;99.90;;;;;;5048444;28;19913;-68
2021/01/09 09:26:07;;;;;;;;;;;2.60;99.90;;;;;;5027250;28;19955;-69
2021/01/09 09:28:43;;;;;;;;;;;2.60;99.90;;;;;;5045204;28;19944;-69
2021/01/09 09:31:28;;;;;;;;;;;2.70;99.90;;;;;;5050272;28;19913;-68
2021/01/09 09:34:14;;;;;;;;;;;2.70;99.90;;;;;;5049051;28;19967;-69
2021/01/09 09:36:39;;;;;;;;;;;2.50;99.90;;;;;;5043960;28;19949;-70
2021/01/09 09:39:11;;;;;;;;;;;2.70;99.90;;;;;;5030259;28;20400;-68
2021/01/09 09:41:46;;;;;;;;;;;3.00;99.90;;;;;;5029924;28;19913;-68
2021/01/09 09:44:12;;;;;;;;;;;3.20;99.90;;;;;;5028816;28;20013;-69
2021/01/09 09:46:40;;;;;;;;;;;3.40;99.90;;;;;;5029912;28;20382;-67
2021/01/09 09:49:06;;;;;;;;;;;3.50;99.90;;;;;;5029284;28;19932;-68
2021/01/09 09:51:32;;;;;;;;;;;3.10;99.90;;;;;;5029503;28;19913;-68
2021/01/09 09:53:57;;;;;;;;;;;3.00;99.90;;;;;;5028390;28;20296;-68
2021/01/09 09:56:23;;;;;;;;;;;2.90;99.90;;;;;;5029655;28;19917;-66
2021/01/09 09:59:09;;;;;;;;;;;3.20;99.90;;;;;;5029290;28;20018;-69
2021/01/09 10:01:35;;;;;;;;;;;3.30;99.90;;;;;;5029824;28;20354;-69
2021/01/09 10:04:01;;;;;;;;;;;3.40;99.90;;;;;;5029169;28;19913;-68
2021/01/09 10:06:36;;;;;;;;;;;3.60;99.90;;;;;;5031806;28;19951;-68
2021/01/09 10:09:18;;;;;;;;;;;3.70;99.90;;;;;;5048795;28;19957;-69
2021/01/09 10:11:44;;;;;;;;;;;3.80;99.90;;;;;;5049257;28;19912;-69
2021/01/09 10:14:10;;;;;;;;;;;4.10;99.90;;;;;;5048203;28;19912;-69
2021/01/09 10:16:36;;;;;;;;;;;4.20;99.90;;;;;;5049228;28;19962;-68
2021/01/09 10:19:03;;;;;;;;;;;4.30;99.90;;;;;;5048880;28;19920;-68
2021/01/09 10:21:31;;;;;;;;;;;4.40;99.90;;;;;;5047900;28;19984;-70
2021/01/09 10:23:57;;;;;;;;;;;4.60;99.90;;;;;;5047500;28;20016;-68
2021/01/09 10:26:23;;;;;;;;;;;4.60;99.90;;;;;;5049033;28;20086;-68
2021/01/09 10:28:49;;;;;;;;;;;4.70;99.90;;;;;;5048395;28;19963;-67
2021/01/09 10:31:14;;;;;;;;;;;4.70;99.90;;;;;;5048989;28;20015;-69
2021/01/09 10:33:40;;;;;;;;;;;4.50;99.90;;;;;;5047660;28;19913;-68
2021/01/09 10:36:06;;;;;;;;;;;4.40;99.90;;;;;;5048404;28;20258;-69
2021/01/09 10:38:31;;;;;;;;;;;4.40;99.90;;;;;;5028432;28;19963;-68
2021/01/09 10:40:57;;;;;;;;;;;4.40;99.90;;;;;;5028752;28;20282;-68
2021/01/09 10:43:22;;;;;;;;;;;4.60;99.90;;;;;;5028160;28;19920;-68
2021/01/09 10:45:48;;;;;;;;;;;4.60;99.90;;;;;;5028014;28;20369;-69
2021/01/09 10:48:13;;;;;;;;;;;4.70;99.90;;;;;;5028650;28;19917;-69
2021/01/09 10:50:38;;;;;;;;;;;4.60;99.90;;;;;;5028286;28;19917;-70
2021/01/09 10:53:05;;;;;;;;;;;4.80;99.90;;;;;;5026458;28;20015;-68
2021/01/09 10:55:30;;;;;;;;;;;4.90;99.90;;;;;;5028365;28;20033;-68
2021/01/09 10:57:56;;;;;;;;;;;4.90;99.90;;;;;;5028499;28;19999;-70
2021/01/09 11:00:22;;;;;;;;;;;5.00;99.90;;;;;;5028297;28;19909;-70
2021/01/09 11:02:47;;;;;;;;;;;5.20;99.90;;;;;;5027450;28;20274;-69
2021/01/09 11:05:13;;;;;;;;;;;5.60;99.90;;;;;;5027546;28;19916;-70
2021/01/09 11:07:38;;;;;;;;;;;6.20;99.90;;;;;;5040054;28;19913;-69
2021/01/09 11:10:05;;;;;;;;;;;6.70;99.90;;;;;;5047939;28;19916;-68
2021/01/09 11:12:30;;;;;;;;;;;7.00;99.90;;;;;;5047685;28;19913;-69
2021/01/09 11:14:56;;;;;;;;;;;7.40;99.90;;;;;;5047136;28;19909;-69
2021/01/09 11:17:21;;;;;;;;;;;7.60;99.90;;;;;;5048078;28;19908;-70
2021/01/09 11:19:47;;;;;;;;;;;7.30;99.90;;;;;;5047959;28;19967;-69
2021/01/09 11:22:12;;;;;;;;;;;7.40;99.90;;;;;;5047172;28;19915;-69
2021/01/09 11:24:38;;;;;;;;;;;7.30;99.90;;;;;;5046966;28;19948;-69
2021/01/09 11:27:04;;;;;;;;;;;7.10;99.90;;;;;;5047719;28;19913;-69
2021/01/09 11:29:30;;;;;;;;;;;7.40;99.90;;;;;;5047644;28;20444;-69
2021/01/09 11:31:59;;;;;;;;;;;7.70;99.90;;;;;;5047347;28;19956;-69
2021/01/09 11:34:25;;;;;;;;;;;7.50;99.90;;;;;;5047267;28;19999;-68
2021/01/09 11:36:50;;;;;;;;;;;7.50;99.90;;;;;;5040736;28;19988;-70
2021/01/09 11:39:16;;;;;;;;;;;7.00;99.90;;;;;;5027352;28;19909;-69
2021/01/09 11:41:41;;;;;;;;;;;6.80;99.90;;;;;;5027700;28;19920;-69
2021/01/09 11:44:07;;;;;;;;;;;6.30;99.90;;;;;;5026888;28;19917;-69
2021/01/09 11:46:32;;;;;;;;;;;5.80;99.90;;;;;;5027536;28;19916;-69
2021/01/09 11:48:58;;;;;;;;;;;5.30;99.90;;;;;;5027526;28;19963;-68
2021/01/09 11:51:24;;;;;;;;;;;4.20;99.90;;;;;;5027747;28;20584;-69
2021/01/09 11:53:49;;;;;;;;;;;3.60;99.90;;;;;;5026152;28;19913;-69
2021/01/09 11:56:18;;;;;;;;;;;3.60;99.90;;;;;;5027745;28;19925;-68
2021/01/09 11:58:44;;;;;;;;;;;3.40;99.90;;;;;;5027488;28;19924;-67
2021/01/09 12:01:09;;;;;;;;;;;3.60;99.90;;;;;;5027670;28;20539;-69
2021/01/09 12:03:35;;;;;;;;;;;3.80;99.90;;;;;;5026959;28;19928;-69
2021/01/09 12:06:00;;;;;;;;;;;3.80;99.90;;;;;;5027515;28;19913;-68
2021/01/09 12:08:26;;;;;;;;;;;3.90;99.90;;;;;;5045517;28;19917;-68
2021/01/09 12:10:52;;;;;;;;;;;3.90;99.90;;;;;;5047582;28;19920;-69
2021/01/09 12:13:17;;;;;;;;;;;3.90;99.90;;;;;;5046851;28;20234;-68
2021/01/09 12:15:47;;;;;;;;;;;3.90;99.90;;;;;;5047664;28;19916;-69
2021/01/09 12:18:12;;;;;;;;;;;4.10;99.90;;;;;;5048052;28;19971;-69
2021/01/09 12:20:39;;;;;;;;;;;4.40;99.90;;;;;;5047518;28;19975;-68
2021/01/09 12:23:04;;;;;;;;;;;4.60;99.90;;;;;;5045287;28;20262;-68
2021/01/09 12:25:30;;;;;;;;;;;4.90;99.90;;;;;;5047660;28;19920;-68
2021/01/09 12:27:55;;;;;;;;;;;4.90;99.90;;;;;;5047264;28;19916;-69
2021/01/09 12:30:21;;;;;;;;;;;5.10;99.90;;;;;;5047322;28;19923;-68
2021/01/09 12:32:46;;;;;;;;;;;5.30;99.90;;;;;;5046538;28;20384;-68
2021/01/09 12:35:12;;;;;;;;;;;5.20;99.90;;;;;;5047226;28;19960;-69
2021/01/09 12:37:37;;;;;;;;;;;5.40;99.90;;;;;;5033574;28;19913;-69
2021/01/09 12:40:05;;;;;;;;;;;5.50;99.90;;;;;;5027612;28;19913;-69
2021/01/09 12:42:31;;;;;;;;;;;5.60;99.90;;;;;;5026956;28;19913;-68
2021/01/09 12:44:56;;;;;;;;;;;5.60;99.90;;;;;;5028368;28;19963;-69
2021/01/09 12:47:22;;;;;;;;;;;5.50;99.90;;;;;;5030817;28;19919;-69
2021/01/09 12:49:47;;;;;;;;;;;5.30;99.90;;;;;;5030714;28;19917;-69
2021/01/09 12:52:13;;;;;;;;;;;5.20;99.90;;;;;;5029953;28;20365;-68
2021/01/09 12:54:38;;;;;;;;;;;5.30;99.90;;;;;;5030018;28;20008;-69
2021/01/09 12:57:04;;;;;;;;;;;5.30;99.90;;;;;;5030747;28;19912;-69
2021/01/09 12:59:29;;;;;;;;;;;5.60;99.90;;;;;;5030897;28;19952;-69
2021/01/09 13:01:55;;;;;;;;;;;5.70;99.90;;;;;;5030867;28;20355;-69
2021/01/09 13:04:21;;;;;;;;;;;5.80;99.90;;;;;;5029933;28;19913;-68
2021/01/09 13:06:47;;;;;;;;;;;5.80;99.90;;;;;;5034723;28;20331;-69
2021/01/09 13:09:14;;;;;;;;;;;5.80;99.90;;;;;;5050237;28;19967;-68
2021/01/09 13:11:40;;;;;;;;;;;5.50;99.90;;;;;;5050467;28;19920;-68
2021/01/09 13:14:06;;;;;;;;;;;5.10;99.90;;;;;;5049198;28;20708;-69
2021/01/09 13:16:32;;;;;;;;;;;4.90;99.90;;;;;;5050304;28;20375;-70
2021/01/09 13:18:58;;;;;;;;;;;4.70;99.90;;;;;;5050159;28;20013;-68
2021/01/09 13:21:23;;;;;;;;;;;4.50;99.90;;;;;;5050009;28;20632;-69
2021/01/09 13:23:49;;;;;;;;;;;4.60;99.90;;;;;;5048733;28;19913;-69
2021/01/09 13:26:14;;;;;;;;;;;4.60;99.90;;;;;;5049555;28;20325;-69
2021/01/09 13:28:40;;;;;;;;;;;4.30;99.90;;;;;;5050194;28;19920;-70
2021/01/09 13:31:05;;;;;;;;;;;4.40;99.90;;;;;;5049107;28;19913;-68
2021/01/09 13:33:31;;;;;;;;;;;4.30;99.90;;;;;;5049423;28;19913;-69
2021/01/09 13:35:57;;;;;;;;;;;4.10;99.90;;;;;;5048779;28;19924;-68
2021/01/09 13:38:22;;;;;;;;;;;4.10;99.90;;;;;;5030084;28;19928;-68
2021/01/09 13:40:48;;;;;;;;;;;4.40;99.90;;;;;;5030430;28;20344;-68
2021/01/09 13:43:18;;;;;;;;;;;4.50;99.90;;;;;;5029616;28;19935;-68
2021/01/09 13:45:43;;;;;;;;;;;4.90;99.90;;;;;;5029365;28;19916;-68
2021/01/09 13:48:09;;;;;;;;;;;5.10;99.90;;;;;;5029955;28;19914;-68
2021/01/09 13:50:35;;;;;;;;;;;5.30;99.90;;;;;;5029794;28;19921;-69
2021/01/09 13:53:00;;;;;;;;;;;5.30;99.90;;;;;;5026940;28;19913;-68
2021/01/09 13:55:26;;;;;;;;;;;4.90;99.90;;;;;;5029169;28;20357;-68
2021/01/09 13:57:51;;;;;;;;;;;4.60;99.90;;;;;;5029091;28;19910;-69
2021/01/09 14:00:17;;;;;;;;;;;4.30;99.90;;;;;;5029765;28;19913;-69
2021/01/09 14:02:43;;;;;;;;;;;3.80;99.90;;;;;;5029327;28;20334;-70
2021/01/09 14:05:09;;;;;;;;;;;3.40;99.90;;;;;;5028823;28;19909;-69
2021/01/09 14:07:35;;;;;;;;;;;3.20;99.90;;;;;;5040315;28;20007;-70
2021/01/09 14:10:01;;;;;;;;;;;3.20;99.90;;;;;;5049415;28;20054;-69
2021/01/09 14:12:27;;;;;;;;;;;3.10;99.90;;;;;;5048845;28;19965;-69
2021/01/09 14:14:52;;;;;;;;;;;3.10;99.90;;;;;;5048671;28;20382;-70
2021/01/09 14:17:18;;;;;;;;;;;3.10;99.90;;;;;;5049416;28;19999;-69
2021/01/09 14:19:43;;;;;;;;;;;3.10;99.90;;;;;;5049160;28;20370;-70
2021/01/09 14:22:09;;;;;;;;;;;3.00;99.90;;;;;;5048407;28;19956;-70
2021/01/09 14:24:34;;;;;;;;;;;2.80;99.90;;;;;;5048617;28;20015;-69
2021/01/09 14:27:00;;;;;;;;;;;2.60;99.90;;;;;;5048911;28;19912;-69